sensor_id;sensor_type;location;lat;lon;timestamp;pressure;altitude;pressure_sealevel;temperature;humidity
2401;BME280;1211;43.200;27.914;2023-02-27T03:56:56;97566.88;;;-2.92;nan
2401;BME280;1211;43.200;27.914;2023-02-27T03:59:25;97558.78;;;-2.75;nan
2401;BME280;1211;43.200;27.914;2023-02-27T04:01:53;97475.75;;;-3.54;nan
2401;BME280;1211;43.200;27.914;2023-02-27T04:04:20;97569.59;;;-3.01;nan
2401;BME280;1211;43.200;27.914;2023-02-27T04:06:48;97515.44;;;-3.16;nan
2401;BME280;1211;43.200;27.914;2023-02-27T04:09:38;97524.50;;;-3.12;nan
2401;BME280;1211;43.200;27.914;2023-02-27T04:12:17;97527.19;;;-3.29;nan
2401;BME280;1211;43.200;27.914;2023-02-27T04:14:49;97679.50;;;-2.60;nan
2401;BME280;1211;43.200;27.914;2023-02-27T04:17:19;97736.22;;;-1.96;nan
2401;BME280;1211;43.200;27.914;2023-02-27T04:19:55;97772.66;;;-1.26;nan
2401;BME280;1211;43.200;27.914;2023-02-27T04:22:28;97884.34;;;-0.84;nan
2401;BME280;1211;43.200;27.914;2023-02-27T04:25:00;97778.16;;;-1.52;nan
2401;BME280;1211;43.200;27.914;2023-02-27T04:27:33;97807.53;;;-1.59;nan
2401;BME280;1211;43.200;27.914;2023-02-27T04:30:07;97698.03;;;-2.41;nan
2401;BME280;1211;43.200;27.914;2023-02-27T04:32:40;97884.53;;;-0.98;nan
2401;BME280;1211;43.200;27.914;2023-02-27T04:35:10;97831.28;;;-1.35;nan
2401;BME280;1211;43.200;27.914;2023-02-27T04:37:41;97779.91;;;-1.64;nan
2401;BME280;1211;43.200;27.914;2023-02-27T04:40:09;97804.44;;;-1.32;nan
2401;BME280;1211;43.200;27.914;2023-02-27T04:42:41;97640.53;;;-2.54;nan
2401;BME280;1211;43.200;27.914;2023-02-27T04:45:11;97621.53;;;-2.83;nan
2401;BME280;1211;43.200;27.914;2023-02-27T04:47:42;97777.28;;;-1.90;nan
2401;BME280;1211;43.200;27.914;2023-02-27T04:50:13;97778.03;;;-1.90;nan
2401;BME280;1211;43.200;27.914;2023-02-27T04:52:42;97648.63;;;-2.88;nan
2401;BME280;1211;43.200;27.914;2023-02-27T04:55:12;96971.34;;;-7.40;nan
2401;BME280;1211;43.200;27.914;2023-02-27T04:57:43;97555.81;;;-3.25;nan
2401;BME280;1211;43.200;27.914;2023-02-27T05:00:12;97602.97;;;-3.10;nan
2401;BME280;1211;43.200;27.914;2023-02-27T05:07:34;97580.53;;;-3.23;nan
2401;BME280;1211;43.200;27.914;2023-02-27T05:10:03;97632.75;;;-2.81;nan
2401;BME280;1211;43.200;27.914;2023-02-27T05:12:32;97520.81;;;-3.51;nan
2401;BME280;1211;43.200;27.914;2023-02-27T05:15:04;97624.69;;;-2.98;nan
2401;BME280;1211;43.200;27.914;2023-02-27T05:17:35;97523.66;;;-3.56;nan
2401;BME280;1211;43.200;27.914;2023-02-27T05:20:04;97706.56;;;-2.47;nan
2401;BME280;1211;43.200;27.914;2023-02-27T05:22:33;97691.38;;;-2.61;nan
2401;BME280;1211;43.200;27.914;2023-02-27T05:25:03;97614.06;;;-3.20;nan
2401;BME280;1211;43.200;27.914;2023-02-27T05:27:36;97827.06;;;-1.62;nan
2401;BME280;1211;43.200;27.914;2023-02-27T05:30:11;97691.22;;;-2.56;nan
2401;BME280;1211;43.200;27.914;2023-02-27T05:32:45;97770.00;;;-2.33;nan
2401;BME280;1211;43.200;27.914;2023-02-27T05:35:16;97129.41;;;-6.36;nan
2401;BME280;1211;43.200;27.914;2023-02-27T05:37:45;97844.03;;;-1.61;nan
2401;BME280;1211;43.200;27.914;2023-02-27T05:40:14;97512.78;;;-3.42;nan
2401;BME280;1211;43.200;27.914;2023-02-27T05:42:43;97669.03;;;-2.70;nan
2401;BME280;1211;43.200;27.914;2023-02-27T05:45:14;97036.25;;;-6.64;nan
2401;BME280;1211;43.200;27.914;2023-02-27T05:47:47;97626.41;;;-2.42;nan
2401;BME280;1211;43.200;27.914;2023-02-27T05:50:16;97730.03;;;-2.14;nan
2401;BME280;1211;43.200;27.914;2023-02-27T05:52:45;97711.19;;;-2.14;nan
2401;BME280;1211;43.200;27.914;2023-02-27T05:55:15;97814.16;;;-1.39;nan
2401;BME280;1211;43.200;27.914;2023-02-27T05:57:43;97813.66;;;-1.33;nan
2401;BME280;1211;43.200;27.914;2023-02-27T06:00:12;97892.38;;;-1.22;nan
2401;BME280;1211;43.200;27.914;2023-02-27T06:02:41;97919.59;;;-0.80;nan
2401;BME280;1211;43.200;27.914;2023-02-27T06:05:10;97819.56;;;-1.39;nan
2401;BME280;1211;43.200;27.914;2023-02-27T06:07:38;97809.28;;;-1.89;nan
2401;BME280;1211;43.200;27.914;2023-02-27T06:10:10;97766.00;;;-2.18;nan
2401;BME280;1211;43.200;27.914;2023-02-27T06:12:39;97699.44;;;-2.26;nan
2401;BME280;1211;43.200;27.914;2023-02-27T06:15:06;96915.47;;;-7.28;nan
2401;BME280;1211;43.200;27.914;2023-02-27T06:17:33;97759.63;;;-1.71;nan
2401;BME280;1211;43.200;27.914;2023-02-27T06:20:00;98052.63;;;0.27;nan
2401;BME280;1211;43.200;27.914;2023-02-27T06:22:28;97914.91;;;-0.54;nan
2401;BME280;1211;43.200;27.914;2023-02-27T06:24:56;97951.94;;;-0.17;nan
2401;BME280;1211;43.200;27.914;2023-02-27T06:27:23;97858.72;;;-0.69;nan
2401;BME280;1211;43.200;27.914;2023-02-27T06:29:50;97945.47;;;0.05;nan
2401;BME280;1211;43.200;27.914;2023-02-27T06:32:17;97569.84;;;-2.51;nan
2401;BME280;1211;43.200;27.914;2023-02-27T06:34:45;97629.84;;;-2.16;nan
2401;BME280;1211;43.200;27.914;2023-02-27T06:37:12;97523.13;;;-2.55;nan
2401;BME280;1211;43.200;27.914;2023-02-27T06:39:40;97601.47;;;-2.13;nan
2401;BME280;1211;43.200;27.914;2023-02-27T06:42:07;97478.88;;;-2.45;nan
2401;BME280;1211;43.200;27.914;2023-02-27T06:44:34;97520.59;;;-1.84;nan
2401;BME280;1211;43.200;27.914;2023-02-27T06:47:01;97588.63;;;-0.99;nan
2401;BME280;1211;43.200;27.914;2023-02-27T06:49:28;97807.47;;;0.26;nan
2401;BME280;1211;43.200;27.914;2023-02-27T06:51:55;97614.41;;;-0.48;nan
2401;BME280;1211;43.200;27.914;2023-02-27T06:54:22;97690.84;;;1.00;nan
2401;BME280;1211;43.200;27.914;2023-02-27T06:56:51;97667.00;;;1.30;nan
2401;BME280;1211;43.200;27.914;2023-02-27T06:59:18;97638.09;;;1.22;nan
2401;BME280;1211;43.200;27.914;2023-02-27T07:01:45;97738.09;;;2.19;nan
2401;BME280;1211;43.200;27.914;2023-02-27T07:04:12;97714.53;;;2.51;nan
2401;BME280;1211;43.200;27.914;2023-02-27T07:06:39;97836.06;;;3.29;nan
2401;BME280;1211;43.200;27.914;2023-02-27T07:09:06;97780.13;;;3.12;nan
2401;BME280;1211;43.200;27.914;2023-02-27T07:11:33;97793.88;;;3.35;nan
2401;BME280;1211;43.200;27.914;2023-02-27T07:14:01;97784.59;;;3.71;nan
2401;BME280;1211;43.200;27.914;2023-02-27T07:16:28;98040.75;;;6.93;nan
2401;BME280;1211;43.200;27.914;2023-02-27T07:18:55;98295.41;;;9.90;nan
2401;BME280;1211;43.200;27.914;2023-02-27T07:21:23;98332.03;;;10.84;nan
2401;BME280;1211;43.200;27.914;2023-02-27T07:23:49;98864.59;;;13.95;nan
2401;BME280;1211;43.200;27.914;2023-02-27T07:26:16;98892.53;;;13.19;nan
2401;BME280;1211;43.200;27.914;2023-02-27T07:28:44;98765.88;;;11.63;nan
2401;BME280;1211;43.200;27.914;2023-02-27T07:31:12;98725.00;;;10.80;nan
2401;BME280;1211;43.200;27.914;2023-02-27T07:33:39;98721.03;;;10.11;nan
2401;BME280;1211;43.200;27.914;2023-02-27T07:36:06;98879.50;;;9.47;nan
2401;BME280;1211;43.200;27.914;2023-02-27T07:38:33;98872.09;;;7.81;nan
2401;BME280;1211;43.200;27.914;2023-02-27T07:41:00;98954.75;;;7.99;nan
2401;BME280;1211;43.200;27.914;2023-02-27T07:43:27;98759.34;;;6.14;nan
2401;BME280;1211;43.200;27.914;2023-02-27T07:45:54;98842.38;;;7.83;nan
2401;BME280;1211;43.200;27.914;2023-02-27T07:48:22;98788.03;;;6.76;nan
2401;BME280;1211;43.200;27.914;2023-02-27T07:50:49;98782.88;;;6.58;nan
2401;BME280;1211;43.200;27.914;2023-02-27T07:53:16;98770.50;;;6.49;nan
2401;BME280;1211;43.200;27.914;2023-02-27T07:55:43;98751.41;;;6.37;nan
2401;BME280;1211;43.200;27.914;2023-02-27T07:58:10;98666.19;;;5.51;nan
2401;BME280;1211;43.200;27.914;2023-02-27T08:00:36;98738.63;;;6.13;nan
2401;BME280;1211;43.200;27.914;2023-02-27T08:03:03;98679.34;;;6.29;nan
2401;BME280;1211;43.200;27.914;2023-02-27T08:05:32;98751.03;;;6.66;nan
2401;BME280;1211;43.200;27.914;2023-02-27T08:08:00;98861.72;;;7.12;nan
2401;BME280;1211;43.200;27.914;2023-02-27T08:10:27;98884.22;;;7.65;nan
2401;BME280;1211;43.200;27.914;2023-02-27T08:12:53;98872.63;;;7.71;nan
2401;BME280;1211;43.200;27.914;2023-02-27T08:15:22;98864.56;;;7.63;nan
2401;BME280;1211;43.200;27.914;2023-02-27T08:17:49;98882.72;;;7.83;nan
2401;BME280;1211;43.200;27.914;2023-02-27T08:20:18;98770.22;;;5.98;nan
2401;BME280;1211;43.200;27.914;2023-02-27T08:22:48;98738.75;;;5.40;nan
2401;BME280;1211;43.200;27.914;2023-02-27T08:25:15;98608.97;;;4.78;nan
2401;BME280;1211;43.200;27.914;2023-02-27T08:27:42;98647.03;;;4.99;nan
2401;BME280;1211;43.200;27.914;2023-02-27T08:30:09;98515.06;;;4.15;nan
2401;BME280;1211;43.200;27.914;2023-02-27T08:32:38;98417.56;;;3.48;nan
2401;BME280;1211;43.200;27.914;2023-02-27T08:35:05;98436.94;;;3.46;nan
2401;BME280;1211;43.200;27.914;2023-02-27T08:54:50;30709.84;;;19.20;100.00
2401;BME280;1211;43.200;27.914;2023-02-27T08:59:57;46891.38;;;-63.86;nan
2401;BME280;1211;43.200;27.914;2023-02-27T10:18:19;97350.03;;;0.90;nan
2401;BME280;1211;43.200;27.914;2023-02-27T10:20:49;97191.28;;;-0.33;nan
2401;BME280;1211;43.200;27.914;2023-02-27T10:25:45;97179.97;;;2.11;nan
2401;BME280;1211;43.200;27.914;2023-02-27T10:40:27;57613.81;;;-145.54;nan
2401;BME280;1211;43.200;27.914;2023-02-27T11:12:19;97099.78;;;-2.69;nan
2401;BME280;1211;43.200;27.914;2023-02-27T11:17:19;97174.91;;;-3.17;nan
2401;BME280;1211;43.200;27.914;2023-02-27T11:19:46;97871.00;;;0.94;nan
2401;BME280;1211;43.200;27.914;2023-02-27T11:22:14;97303.28;;;-2.38;nan
2401;BME280;1211;43.200;27.914;2023-02-27T11:24:41;96961.56;;;-4.51;nan
2401;BME280;1211;43.200;27.914;2023-02-27T11:27:19;97132.06;;;-3.52;nan
2401;BME280;1211;43.200;27.914;2023-02-27T11:29:56;96856.03;;;-5.02;nan
2401;BME280;1211;43.200;27.914;2023-02-27T11:32:24;97144.69;;;-3.23;nan
2401;BME280;1211;43.200;27.914;2023-02-27T11:34:52;97241.88;;;-2.95;nan
2401;BME280;1211;43.200;27.914;2023-02-27T11:39:46;98107.03;;;3.21;nan
2401;BME280;1211;43.200;27.914;2023-02-27T11:42:15;97927.03;;;1.02;nan
2401;BME280;1211;43.200;27.914;2023-02-27T11:47:35;97565.28;;;0.08;nan
2401;BME280;1211;43.200;27.914;2023-02-27T11:53:23;98295.78;;;3.81;nan
2401;BME280;1211;43.200;27.914;2023-02-27T11:56:07;98003.34;;;1.37;nan
2401;BME280;1211;43.200;27.914;2023-02-27T11:58:37;97780.53;;;0.62;nan
2401;BME280;1211;43.200;27.914;2023-02-27T12:01:07;97842.72;;;1.28;nan
2401;BME280;1211;43.200;27.914;2023-02-27T12:03:37;97936.75;;;1.97;nan
2401;BME280;1211;43.200;27.914;2023-02-27T12:06:12;97914.56;;;2.19;nan
2401;BME280;1211;43.200;27.914;2023-02-27T12:08:44;98173.53;;;3.36;nan
2401;BME280;1211;43.200;27.914;2023-02-27T12:11:14;98282.25;;;4.37;nan
2401;BME280;1211;43.200;27.914;2023-02-27T13:40:50;120192.56;;;139.22;nan
2401;BME280;1211;43.200;27.914;2023-02-27T14:49:18;120861.50;;;137.56;nan
2401;BME280;1211;43.200;27.914;2023-02-27T14:51:45;120555.31;;;134.98;nan
2401;BME280;1211;43.200;27.914;2023-02-27T14:59:17;121266.69;;;141.08;nan
2401;BME280;1211;43.200;27.914;2023-02-27T15:01:46;120346.19;;;134.63;nan
2401;BME280;1211;43.200;27.914;2023-02-27T15:06:41;121032.50;;;138.39;nan
2401;BME280;1211;43.200;27.914;2023-02-27T15:09:11;121121.28;;;138.70;nan
2401;BME280;1211;43.200;27.914;2023-02-27T15:11:43;120943.88;;;137.49;nan
2401;BME280;1211;43.200;27.914;2023-02-27T15:14:14;121102.94;;;138.58;nan
2401;BME280;1211;43.200;27.914;2023-02-27T15:16:43;121269.72;;;139.09;nan
2401;BME280;1211;43.200;27.914;2023-02-27T15:19:14;121111.50;;;137.15;nan
2401;BME280;1211;43.200;27.914;2023-02-27T15:21:43;121050.19;;;136.57;nan
2401;BME280;1211;43.200;27.914;2023-02-27T15:24:21;121011.50;;;136.10;nan
2401;BME280;1211;43.200;27.914;2023-02-27T15:29:15;120403.31;;;133.06;nan
2401;BME280;1211;43.200;27.914;2023-02-27T15:31:46;119886.47;;;129.10;nan
2401;BME280;1211;43.200;27.914;2023-02-27T15:34:12;120859.75;;;134.72;nan
2401;BME280;1211;43.200;27.914;2023-02-27T15:36:43;121060.22;;;136.83;nan
2401;BME280;1211;43.200;27.914;2023-02-27T15:39:15;121205.38;;;137.83;nan
2401;BME280;1211;43.200;27.914;2023-02-27T15:41:42;121340.69;;;138.77;nan
2401;BME280;1211;43.200;27.914;2023-02-27T15:44:10;121278.94;;;138.06;nan
2401;BME280;1211;43.200;27.914;2023-02-27T15:46:38;121169.19;;;137.75;nan
2401;BME280;1211;43.200;27.914;2023-02-27T15:49:05;121217.75;;;137.36;nan
2401;BME280;1211;43.200;27.914;2023-02-27T15:51:32;120695.31;;;134.52;nan
2401;BME280;1211;43.200;27.914;2023-02-27T15:54:02;120681.94;;;133.77;nan
2401;BME280;1211;43.200;27.914;2023-02-27T15:56:30;120691.81;;;133.79;nan
2401;BME280;1211;43.200;27.914;2023-02-27T16:03:52;121377.81;;;137.78;nan
2401;BME280;1211;43.200;27.914;2023-02-27T16:08:47;120872.38;;;134.84;nan
2401;BME280;1211;43.200;27.914;2023-02-27T16:11:18;120615.59;;;133.10;nan
2401;BME280;1211;43.200;27.914;2023-02-27T16:13:45;120733.56;;;133.42;nan
2401;BME280;1211;43.200;27.914;2023-02-27T16:18:42;120608.00;;;132.42;nan
2401;BME280;1211;43.200;27.914;2023-02-27T16:30:56;120949.47;;;133.94;nan
2401;BME280;1211;43.200;27.914;2023-02-27T16:33:22;121244.81;;;136.39;nan
2401;BME280;1211;43.200;27.914;2023-02-27T16:35:49;121309.59;;;136.84;nan
2401;BME280;1211;43.200;27.914;2023-02-27T16:38:29;121124.53;;;135.30;nan
2401;BME280;1211;43.200;27.914;2023-02-27T16:40:56;119791.28;;;127.63;nan
2401;BME280;1211;43.200;27.914;2023-02-27T16:43:22;120930.19;;;134.91;nan
2401;BME280;1211;43.200;27.914;2023-02-27T16:48:17;120793.38;;;133.42;nan
2401;BME280;1211;43.200;27.914;2023-02-27T16:50:43;121357.59;;;137.17;nan
2401;BME280;1211;43.200;27.914;2023-02-27T16:53:10;121048.06;;;134.82;nan
2401;BME280;1211;43.200;27.914;2023-02-27T16:55:37;121492.28;;;137.39;nan
2401;BME280;1211;43.200;27.914;2023-02-27T17:00:31;121876.50;;;139.90;nan
2401;BME280;1211;43.200;27.914;2023-02-27T17:07:53;121886.00;;;139.28;nan
2401;BME280;1211;43.200;27.914;2023-02-27T17:10:21;121897.16;;;139.12;nan
2401;BME280;1211;43.200;27.914;2023-02-27T17:12:48;121735.16;;;137.55;nan
2401;BME280;1211;43.200;27.914;2023-02-27T17:15:15;122228.28;;;140.62;nan
2401;BME280;1211;43.200;27.914;2023-02-27T17:17:42;121809.03;;;137.76;nan
2401;BME280;1211;43.200;27.914;2023-02-27T17:20:09;122350.97;;;141.48;nan
2401;BME280;1211;43.200;27.914;2023-02-27T17:22:37;121414.22;;;136.07;nan
2401;BME280;1211;43.200;27.914;2023-02-27T17:25:06;122312.91;;;141.41;nan
2401;BME280;1211;43.200;27.914;2023-02-27T17:27:33;121906.28;;;138.25;nan
2401;BME280;1211;43.200;27.914;2023-02-27T17:30:00;121966.19;;;138.29;nan
2401;BME280;1211;43.200;27.914;2023-02-27T17:32:27;121836.41;;;137.51;nan
2401;BME280;1211;43.200;27.914;2023-02-27T17:34:53;121782.66;;;137.43;nan
2401;BME280;1211;43.200;27.914;2023-02-27T17:37:20;122091.59;;;139.21;nan
2401;BME280;1211;43.200;27.914;2023-02-27T17:39:47;122152.91;;;139.42;nan
2401;BME280;1211;43.200;27.914;2023-02-27T17:42:15;122366.13;;;140.92;nan
2401;BME280;1211;43.200;27.914;2023-02-27T17:44:42;122412.28;;;141.59;nan
2401;BME280;1211;43.200;27.914;2023-02-27T17:47:09;122318.63;;;140.77;nan
2401;BME280;1211;43.200;27.914;2023-02-27T17:49:36;122369.03;;;140.64;nan
2401;BME280;1211;43.200;27.914;2023-02-27T17:52:02;122647.53;;;142.23;nan
2401;BME280;1211;43.200;27.914;2023-02-27T17:54:31;122522.22;;;141.82;nan
2401;BME280;1211;43.200;27.914;2023-02-27T17:56:58;122237.28;;;139.57;nan
2401;BME280;1211;43.200;27.914;2023-02-27T17:59:26;122334.06;;;139.76;nan
2401;BME280;1211;43.200;27.914;2023-02-27T18:01:52;122173.47;;;138.83;nan
2401;BME280;1211;43.200;27.914;2023-02-27T18:04:19;121744.22;;;136.09;nan
2401;BME280;1211;43.200;27.914;2023-02-27T18:06:46;121521.03;;;134.57;nan
2401;BME280;1211;43.200;27.914;2023-02-27T18:09:14;121718.00;;;135.84;nan
2401;BME280;1211;43.200;27.914;2023-02-27T18:11:41;121771.28;;;136.18;nan
2401;BME280;1211;43.200;27.914;2023-02-27T18:14:08;122367.56;;;139.76;nan
2401;BME280;1211;43.200;27.914;2023-02-27T18:16:36;122439.78;;;140.11;nan
2401;BME280;1211;43.200;27.914;2023-02-27T18:19:03;122414.34;;;139.66;nan
2401;BME280;1211;43.200;27.914;2023-02-27T18:21:30;122203.59;;;137.72;nan
2401;BME280;1211;43.200;27.914;2023-02-27T18:23:56;122472.84;;;140.43;nan
2401;BME280;1211;43.200;27.914;2023-02-27T18:26:24;121853.94;;;136.32;nan
2401;BME280;1211;43.200;27.914;2023-02-27T18:28:51;121895.59;;;136.65;nan
2401;BME280;1211;43.200;27.914;2023-02-27T18:31:18;121923.63;;;136.86;nan
2401;BME280;1211;43.200;27.914;2023-02-27T18:33:47;121906.22;;;136.84;nan
2401;BME280;1211;43.200;27.914;2023-02-27T18:36:13;121742.78;;;136.21;nan
2401;BME280;1211;43.200;27.914;2023-02-27T18:38:40;121460.28;;;134.39;nan
2401;BME280;1211;43.200;27.914;2023-02-27T18:41:07;121537.06;;;134.71;nan
2401;BME280;1211;43.200;27.914;2023-02-27T18:43:34;121742.66;;;135.06;nan
2401;BME280;1211;43.200;27.914;2023-02-27T18:46:01;121129.66;;;131.25;nan
2401;BME280;1211;43.200;27.914;2023-02-27T18:48:28;121027.28;;;131.15;nan
2401;BME280;1211;43.200;27.914;2023-02-27T18:50:58;121110.28;;;131.33;nan
2401;BME280;1211;43.200;27.914;2023-02-27T18:55:57;121070.56;;;130.80;nan
2401;BME280;1211;43.200;27.914;2023-02-27T18:58:24;121203.25;;;131.79;nan
2401;BME280;1211;43.200;27.914;2023-02-27T19:00:51;121299.88;;;131.65;nan
2401;BME280;1211;43.200;27.914;2023-02-27T19:03:17;121040.34;;;130.36;nan
2401;BME280;1211;43.200;27.914;2023-02-27T19:05:44;120879.94;;;129.40;nan
2401;BME280;1211;43.200;27.914;2023-02-27T19:08:12;120760.94;;;128.29;nan
2401;BME280;1211;43.200;27.914;2023-02-27T19:13:05;121018.38;;;131.09;nan
2401;BME280;1211;43.200;27.914;2023-02-27T19:20:26;121322.22;;;131.91;nan
2401;BME280;1211;43.200;27.914;2023-02-27T19:22:52;121179.88;;;131.33;nan
2401;BME280;1211;43.200;27.914;2023-02-27T19:25:21;121288.63;;;131.54;nan
2401;BME280;1211;43.200;27.914;2023-02-27T19:37:36;121061.31;;;130.57;nan
2401;BME280;1211;43.200;27.914;2023-02-27T19:40:04;120974.34;;;129.66;nan
2401;BME280;1211;43.200;27.914;2023-02-27T19:47:26;120820.25;;;128.33;nan
2401;BME280;1211;43.200;27.914;2023-02-27T19:54:45;121251.53;;;130.60;nan
2401;BME280;1211;43.200;27.914;2023-02-27T19:57:12;121390.13;;;131.94;nan
2401;BME280;1211;43.200;27.914;2023-02-27T19:59:39;121245.91;;;131.41;nan
2401;BME280;1211;43.200;27.914;2023-02-27T20:02:06;121357.72;;;131.70;nan
2401;BME280;1211;43.200;27.914;2023-02-27T20:04:34;121294.91;;;130.79;nan
2401;BME280;1211;43.200;27.914;2023-02-27T20:07:00;121519.41;;;132.48;nan
2401;BME280;1211;43.200;27.914;2023-02-27T20:09:27;121553.13;;;132.81;nan
2401;BME280;1211;43.200;27.914;2023-02-27T20:11:54;121576.25;;;132.83;nan
2401;BME280;1211;43.200;27.914;2023-02-27T20:14:23;121445.09;;;131.85;nan
2401;BME280;1211;43.200;27.914;2023-02-27T20:16:50;121507.22;;;132.40;nan
2401;BME280;1211;43.200;27.914;2023-02-27T20:21:45;121253.22;;;131.19;nan
2401;BME280;1211;43.200;27.914;2023-02-27T20:24:12;121267.00;;;130.70;nan
2401;BME280;1211;43.200;27.914;2023-02-27T20:26:39;121329.13;;;129.95;nan
2401;BME280;1211;43.200;27.914;2023-02-27T20:29:07;121605.16;;;131.84;nan
2401;BME280;1211;43.200;27.914;2023-02-27T20:31:35;121308.63;;;130.26;nan
2401;BME280;1211;43.200;27.914;2023-02-27T20:34:02;121701.81;;;132.77;nan
2401;BME280;1211;43.200;27.914;2023-02-27T20:36:30;121604.81;;;132.23;nan
2401;BME280;1211;43.200;27.914;2023-02-27T20:38:58;121945.34;;;134.37;nan
2401;BME280;1211;43.200;27.914;2023-02-27T20:41:24;121843.38;;;133.86;nan
2401;BME280;1211;43.200;27.914;2023-02-27T20:43:51;121850.53;;;134.15;nan
2401;BME280;1211;43.200;27.914;2023-02-27T20:46:19;121908.88;;;134.33;nan
2401;BME280;1211;43.200;27.914;2023-02-27T20:48:45;121667.63;;;132.82;nan
2401;BME280;1211;43.200;27.914;2023-02-27T20:51:12;121602.56;;;132.91;nan
2401;BME280;1211;43.200;27.914;2023-02-27T20:53:40;121852.72;;;134.44;nan
2401;BME280;1211;43.200;27.914;2023-02-27T20:56:08;121896.63;;;134.07;nan
2401;BME280;1211;43.200;27.914;2023-02-27T20:58:35;121974.72;;;134.72;nan
2401;BME280;1211;43.200;27.914;2023-02-27T21:01:03;121638.59;;;133.06;nan
2401;BME280;1211;43.200;27.914;2023-02-27T21:03:33;121878.53;;;134.43;nan
2401;BME280;1211;43.200;27.914;2023-02-27T21:05:59;121848.38;;;133.85;nan
2401;BME280;1211;43.200;27.914;2023-02-27T21:13:20;121827.03;;;133.78;nan
2401;BME280;1211;43.200;27.914;2023-02-27T21:15:48;121812.88;;;133.56;nan
2401;BME280;1211;43.200;27.914;2023-02-27T21:18:14;121922.16;;;134.12;nan
2401;BME280;1211;43.200;27.914;2023-02-27T21:20:41;121904.47;;;134.18;nan
2401;BME280;1211;43.200;27.914;2023-02-27T21:23:08;121777.72;;;133.63;nan
2401;BME280;1211;43.200;27.914;2023-02-27T21:25:38;121721.31;;;133.14;nan
2401;BME280;1211;43.200;27.914;2023-02-27T21:28:05;121873.47;;;133.34;nan
2401;BME280;1211;43.200;27.914;2023-02-27T21:30:33;121442.72;;;131.26;nan
2401;BME280;1211;43.200;27.914;2023-02-27T21:33:00;121843.28;;;133.42;nan
2401;BME280;1211;43.200;27.914;2023-02-27T21:35:26;122326.31;;;136.42;nan
2401;BME280;1211;43.200;27.914;2023-02-27T21:37:53;121754.56;;;132.62;nan
2401;BME280;1211;43.200;27.914;2023-02-27T21:40:20;121990.91;;;133.97;nan
2401;BME280;1211;43.200;27.914;2023-02-27T21:42:46;121438.97;;;130.04;nan
2401;BME280;1211;43.200;27.914;2023-02-27T21:47:41;122136.19;;;134.92;nan
2401;BME280;1211;43.200;27.914;2023-02-27T21:50:08;121838.28;;;132.94;nan
2401;BME280;1211;43.200;27.914;2023-02-27T21:52:38;122031.59;;;134.43;nan
2401;BME280;1211;43.200;27.914;2023-02-27T21:55:05;121743.94;;;132.31;nan
2401;BME280;1211;43.200;27.914;2023-02-27T21:57:32;121862.88;;;132.76;nan
2401;BME280;1211;43.200;27.914;2023-02-27T21:59:58;121596.31;;;131.43;nan
2401;BME280;1211;43.200;27.914;2023-02-27T22:02:25;121537.88;;;130.59;nan
2401;BME280;1211;43.200;27.914;2023-02-27T22:04:53;121271.69;;;128.80;nan
2401;BME280;1211;43.200;27.914;2023-02-27T22:07:20;122091.28;;;134.26;nan
2401;BME280;1211;43.200;27.914;2023-02-27T22:09:46;122151.38;;;134.66;nan
2401;BME280;1211;43.200;27.914;2023-02-27T22:12:13;122454.56;;;136.28;nan
2401;BME280;1211;43.200;27.914;2023-02-27T22:14:40;122272.50;;;135.19;nan
2401;BME280;1211;43.200;27.914;2023-02-27T22:17:07;122246.16;;;135.52;nan
2401;BME280;1211;43.200;27.914;2023-02-27T22:19:34;122346.44;;;135.65;nan
2401;BME280;1211;43.200;27.914;2023-02-27T22:22:02;122263.22;;;135.21;nan
2401;BME280;1211;43.200;27.914;2023-02-27T22:24:29;122426.69;;;135.98;nan
2401;BME280;1211;43.200;27.914;2023-02-27T22:26:55;122406.44;;;136.23;nan
2401;BME280;1211;43.200;27.914;2023-02-27T22:29:22;122335.03;;;135.58;nan
2401;BME280;1211;43.200;27.914;2023-02-27T22:31:49;122643.13;;;137.71;nan
2401;BME280;1211;43.200;27.914;2023-02-27T22:34:16;121835.88;;;132.05;nan
2401;BME280;1211;43.200;27.914;2023-02-27T22:36:43;122119.00;;;133.96;nan
2401;BME280;1211;43.200;27.914;2023-02-27T22:39:11;122358.38;;;135.37;nan
2401;BME280;1211;43.200;27.914;2023-02-27T22:41:39;122443.94;;;135.84;nan
2401;BME280;1211;43.200;27.914;2023-02-27T22:44:06;122349.69;;;135.46;nan
2401;BME280;1211;43.200;27.914;2023-02-27T22:46:34;122470.59;;;136.05;nan
2401;BME280;1211;43.200;27.914;2023-02-27T22:49:01;122624.66;;;136.68;nan
2401;BME280;1211;43.200;27.914;2023-02-27T22:51:28;122529.69;;;136.06;nan
2401;BME280;1211;43.200;27.914;2023-02-27T22:53:56;122533.16;;;136.04;nan
2401;BME280;1211;43.200;27.914;2023-02-27T22:56:25;121942.72;;;131.77;nan
2401;BME280;1211;43.200;27.914;2023-02-27T22:58:52;122461.78;;;135.35;nan
2401;BME280;1211;43.200;27.914;2023-02-27T23:01:19;122587.50;;;136.40;nan
2401;BME280;1211;43.200;27.914;2023-02-27T23:03:46;122508.28;;;136.20;nan
2401;BME280;1211;43.200;27.914;2023-02-27T23:06:14;122588.84;;;136.29;nan
2401;BME280;1211;43.200;27.914;2023-02-27T23:08:41;122511.44;;;135.84;nan
2401;BME280;1211;43.200;27.914;2023-02-27T23:11:08;122525.56;;;136.06;nan
2401;BME280;1211;43.200;27.914;2023-02-27T23:13:36;122407.41;;;135.40;nan
2401;BME280;1211;43.200;27.914;2023-02-27T23:16:03;122497.31;;;135.63;nan
2401;BME280;1211;43.200;27.914;2023-02-27T23:18:36;122572.94;;;136.29;nan
2401;BME280;1211;43.200;27.914;2023-02-27T23:21:02;122254.69;;;134.39;nan
2401;BME280;1211;43.200;27.914;2023-02-27T23:23:29;122652.78;;;136.54;nan
2401;BME280;1211;43.200;27.914;2023-02-27T23:25:57;122404.56;;;135.05;nan
2401;BME280;1211;43.200;27.914;2023-02-27T23:28:24;122472.06;;;135.27;nan
2401;BME280;1211;43.200;27.914;2023-02-27T23:30:52;122289.69;;;134.13;nan
2401;BME280;1211;43.200;27.914;2023-02-27T23:33:19;122230.06;;;134.05;nan
2401;BME280;1211;43.200;27.914;2023-02-27T23:35:45;122282.44;;;134.04;nan
2401;BME280;1211;43.200;27.914;2023-02-27T23:38:12;122272.97;;;133.90;nan
2401;BME280;1211;43.200;27.914;2023-02-27T23:40:39;122481.66;;;135.37;nan
2401;BME280;1211;43.200;27.914;2023-02-27T23:43:05;122510.53;;;135.44;nan
2401;BME280;1211;43.200;27.914;2023-02-27T23:45:32;122452.91;;;135.04;nan
2401;BME280;1211;43.200;27.914;2023-02-27T23:47:59;122315.66;;;134.31;nan
2401;BME280;1211;43.200;27.914;2023-02-27T23:50:27;122382.47;;;134.73;nan